Time;durP1;ratioP1;P1;durP2;ratioP2;P2;SDS_P1;SDS_P2;PMS_P1;PMS_P2;Temp;Humidity;BMP_temperature;BMP_pressure;BME280_temperature;BME280_humidity;BME280_pressure;Samples;Min_cycle;Max_cycle;Signal;HPM_P1;HPM_P2
2023/11/04 00:00:53;;;;;;;59.97;53.33;;;11.70;99.90;;;;;;5026956;28;20030;-72
2023/11/04 00:03:19;;;;;;;84.60;78.18;;;11.60;99.90;;;;;;5031870;28;20045;-71
2023/11/04 00:05:46;;;;;;;76.55;70.32;;;11.60;99.90;;;;;;5032033;28;20037;-71
2023/11/04 00:08:13;;;;;;;57.53;52.60;;;11.60;99.90;;;;;;5029432;28;20056;-71
2023/11/04 00:10:40;;;;;;;61.95;56.05;;;11.60;99.90;;;;;;5029394;28;20060;-71
2023/11/04 00:13:09;;;;;;;44.17;39.92;;;11.60;99.90;;;;;;5031021;28;20109;-71
2023/11/04 00:15:35;;;;;;;42.05;37.85;;;11.70;99.90;;;;;;5029877;28;20036;-71
2023/11/04 00:18:02;;;;;;;44.40;34.22;;;11.60;99.90;;;;;;5031366;28;20049;-71
2023/11/04 00:20:28;;;;;;;38.45;33.90;;;11.60;99.90;;;;;;5022866;28;20050;-71
2023/11/04 00:22:54;;;;;;;36.28;32.33;;;11.60;99.90;;;;;;5024429;28;20037;-71
2023/11/04 00:25:20;;;;;;;41.42;34.63;;;11.60;99.90;;;;;;5021576;28;20392;-71
2023/11/04 00:27:46;;;;;;;41.20;35.80;;;11.50;99.90;;;;;;5030235;28;20044;-71
2023/11/04 00:30:16;;;;;;;41.20;34.17;;;11.50;99.90;;;;;;5028268;28;20064;-71
2023/11/04 00:32:42;;;;;;;40.63;33.08;;;11.60;99.90;;;;;;5031482;28;20022;-71
2023/11/04 00:35:08;;;;;;;37.63;34.10;;;11.60;99.90;;;;;;5030241;28;20098;-71
2023/11/04 00:37:34;;;;;;;39.22;34.95;;;11.60;99.90;;;;;;5024603;28;20037;-72
2023/11/04 00:40:10;;;;;;;40.58;34.08;;;11.70;99.90;;;;;;5030051;28;20036;-71
2023/11/04 00:42:37;;;;;;;40.38;36.22;;;11.70;99.90;;;;;;5029472;28;20025;-71
2023/11/04 00:45:04;;;;;;;48.05;43.53;;;11.70;99.90;;;;;;5031149;28;20042;-71
2023/11/04 00:47:30;;;;;;;50.80;46.28;;;11.60;99.90;;;;;;5017251;28;20038;-70
2023/11/04 00:49:56;;;;;;;48.75;43.80;;;11.60;99.90;;;;;;5029594;28;20044;-71
2023/11/04 00:52:22;;;;;;;63.03;57.90;;;11.60;99.90;;;;;;5031620;28;20056;-71
2023/11/04 00:54:48;;;;;;;73.55;67.88;;;11.60;99.90;;;;;;5030751;28;20034;-71
2023/11/04 00:57:14;;;;;;;60.50;55.58;;;11.60;99.90;;;;;;5030563;28;20048;-71
2023/11/04 00:59:40;;;;;;;78.75;72.75;;;11.50;99.90;;;;;;5029227;28;20037;-71
2023/11/04 01:02:08;;;;;;;80.85;74.75;;;11.50;99.90;;;;;;5030147;28;20057;-71
2023/11/04 01:04:34;;;;;;;73.95;68.88;;;11.50;99.90;;;;;;5030236;28;20387;-71
2023/11/04 01:07:00;;;;;;;64.65;59.13;;;11.50;99.90;;;;;;5030709;28;20037;-71
2023/11/04 01:09:26;;;;;;;73.18;67.63;;;11.50;99.90;;;;;;5022429;28;20386;-71
2023/11/04 01:11:52;;;;;;;82.28;76.05;;;11.40;99.90;;;;;;5029663;28;20045;-71
2023/11/04 01:14:18;;;;;;;57.25;52.63;;;11.40;99.90;;;;;;5031353;28;20454;-71
2023/11/04 01:16:44;;;;;;;70.45;65.43;;;11.50;99.90;;;;;;5029454;28;20057;-71
2023/11/04 01:19:10;;;;;;;74.30;69.07;;;11.50;99.90;;;;;;5026808;28;20048;-71
2023/11/04 01:21:36;;;;;;;48.95;45.13;;;11.50;99.90;;;;;;5028984;28;20045;-71
2023/11/04 01:24:03;;;;;;;66.32;61.08;;;11.40;99.90;;;;;;5030958;28;20040;-71
2023/11/04 01:26:29;;;;;;;70.90;66.07;;;11.40;99.90;;;;;;5030901;28;20033;-71
2023/11/04 01:28:55;;;;;;;87.15;80.38;;;11.40;99.90;;;;;;5014049;28;20045;-71
2023/11/04 01:31:21;;;;;;;76.22;70.47;;;11.40;99.90;;;;;;5029523;28;20053;-71
2023/11/04 01:33:47;;;;;;;79.43;73.65;;;11.40;99.90;;;;;;5030175;28;20037;-71
2023/11/04 01:36:13;;;;;;;52.70;47.85;;;11.30;99.90;;;;;;5025717;28;20193;-71
2023/11/04 01:38:39;;;;;;;46.72;42.05;;;11.40;99.90;;;;;;5027744;28;20052;-72
2023/11/04 01:41:05;;;;;;;34.60;31.33;;;11.40;99.90;;;;;;5023548;28;20029;-71
2023/11/04 01:43:32;;;;;;;35.45;31.65;;;11.40;99.90;;;;;;5030704;28;20029;-71
2023/11/04 01:46:10;;;;;;;35.38;31.75;;;11.40;99.90;;;;;;5027091;28;20038;-71
2023/11/04 01:48:36;;;;;;;40.17;36.05;;;11.40;99.90;;;;;;5028605;28;20037;-71
2023/11/04 01:51:03;;;;;;;40.70;36.78;;;11.40;99.90;;;;;;5029850;28;20049;-71
2023/11/04 01:53:30;;;;;;;41.75;37.63;;;11.40;99.90;;;;;;5015707;28;20022;-71
2023/11/04 01:55:56;;;;;;;34.45;31.20;;;11.40;99.90;;;;;;5019926;28;20486;-71
2023/11/04 01:58:22;;;;;;;47.15;43.15;;;11.40;99.90;;;;;;5018481;28;20038;-71
2023/11/04 02:00:48;;;;;;;39.58;35.88;;;11.30;99.90;;;;;;5043136;28;20522;-71
2023/11/04 02:03:16;;;;;;;63.83;59.10;;;11.30;99.90;;;;;;5019983;28;20390;-71
2023/11/04 02:05:42;;;;;;;53.92;49.05;;;11.30;99.90;;;;;;5030126;28;20501;-71
2023/11/04 02:08:09;;;;;;;50.08;45.90;;;11.20;99.90;;;;;;5017077;28;20402;-71
2023/11/04 02:10:35;;;;;;;30.02;25.75;;;11.20;99.90;;;;;;5031876;28;20049;-71
2023/11/04 02:13:01;;;;;;;40.42;36.50;;;11.10;99.90;;;;;;5012603;28;20045;-71
2023/11/04 02:15:27;;;;;;;49.08;45.25;;;11.10;99.90;;;;;;5008838;28;20053;-71
2023/11/04 02:17:53;;;;;;;35.65;32.35;;;11.10;99.90;;;;;;5032061;28;20370;-71
2023/11/04 02:20:20;;;;;;;33.45;30.25;;;11.10;99.90;;;;;;5033322;28;20037;-71
2023/11/04 02:22:46;;;;;;;35.05;31.70;;;11.10;99.90;;;;;;5023360;28;20033;-71
2023/11/04 02:25:15;;;;;;;28.85;24.48;;;11.10;99.90;;;;;;4999794;28;20045;-71
2023/11/04 02:27:42;;;;;;;40.13;36.30;;;11.00;99.90;;;;;;5015979;28;20048;-71
2023/11/04 02:30:10;;;;;;;35.38;32.33;;;11.00;99.90;;;;;;5020580;28;20037;-72
2023/11/04 02:32:37;;;;;;;40.00;36.08;;;11.00;99.90;;;;;;5034400;28;20037;-71
2023/11/04 02:35:04;;;;;;;36.40;32.55;;;11.00;99.90;;;;;;5029336;28;20033;-71
2023/11/04 02:37:31;;;;;;;38.17;34.58;;;11.00;99.90;;;;;;5033297;28;20411;-71
2023/11/04 02:39:57;;;;;;;38.53;34.80;;;11.00;99.90;;;;;;5033387;28;20375;-71
2023/11/04 02:42:23;;;;;;;39.05;35.92;;;10.90;99.90;;;;;;5032247;28;20037;-71
2023/11/04 02:44:49;;;;;;;40.85;37.00;;;10.90;99.90;;;;;;5027636;28;20022;-71
2023/11/04 02:47:15;;;;;;;41.78;37.67;;;10.90;99.90;;;;;;5027099;28;20079;-71
2023/11/04 02:49:42;;;;;;;39.70;35.95;;;10.90;99.90;;;;;;5028871;28;20026;-71
2023/11/04 02:52:08;;;;;;;27.83;25.25;;;10.90;99.90;;;;;;5032466;28;20041;-71
2023/11/04 02:54:34;;;;;;;24.38;20.95;;;10.90;99.90;;;;;;5033362;28;20033;-71
2023/11/04 02:57:01;;;;;;;45.25;41.30;;;10.80;99.90;;;;;;5011882;28;20034;-71
2023/11/04 02:59:27;;;;;;;51.78;47.92;;;10.80;99.90;;;;;;5029385;28;20033;-71
2023/11/04 03:01:53;;;;;;;50.63;45.92;;;10.90;99.90;;;;;;5026503;28;20060;-71
2023/11/04 03:04:19;;;;;;;43.17;39.05;;;10.90;99.90;;;;;;5033039;28;20021;-71
2023/11/04 03:06:45;;;;;;;39.58;35.95;;;10.90;99.90;;;;;;5031323;28;20041;-72
2023/11/04 03:09:12;;;;;;;36.53;33.17;;;10.80;99.90;;;;;;5029582;28;20046;-72
2023/11/04 03:11:39;;;;;;;35.90;32.78;;;10.80;99.90;;;;;;5040907;28;20044;-71
2023/11/04 03:14:05;;;;;;;40.60;37.15;;;10.80;99.90;;;;;;5030785;28;20029;-71
2023/11/04 03:16:31;;;;;;;38.67;35.42;;;10.80;99.90;;;;;;5023835;28;20052;-71
2023/11/04 03:18:57;;;;;;;33.78;30.63;;;10.80;99.90;;;;;;5032951;28;20025;-71
2023/11/04 03:21:23;;;;;;;40.00;36.47;;;10.80;99.90;;;;;;5032485;28;20378;-71
2023/11/04 03:23:49;;;;;;;50.63;46.83;;;10.80;99.90;;;;;;5032175;28;20033;-71
2023/11/04 03:26:18;;;;;;;42.95;39.30;;;10.90;99.90;;;;;;5027866;28;20377;-71
2023/11/04 03:28:44;;;;;;;32.58;29.45;;;10.90;99.90;;;;;;5031602;28;20414;-71
2023/11/04 03:31:10;;;;;;;41.20;37.72;;;10.90;99.90;;;;;;5030696;28;20053;-71
2023/11/04 03:33:37;;;;;;;34.35;31.40;;;10.90;99.90;;;;;;5014593;28;20471;-71
2023/11/04 03:36:04;;;;;;;37.47;34.15;;;10.90;99.90;;;;;;5028049;28;20042;-71
2023/11/04 03:38:30;;;;;;;30.23;27.75;;;10.80;99.90;;;;;;5032106;28;20490;-71
2023/11/04 03:40:56;;;;;;;20.50;18.77;;;10.90;99.90;;;;;;5030668;28;20033;-72
2023/11/04 03:43:22;;;;;;;49.75;46.33;;;10.90;99.90;;;;;;5030903;28;20467;-71
2023/11/04 03:45:49;;;;;;;44.28;41.13;;;10.90;99.90;;;;;;5027476;28;20044;-71
2023/11/04 03:48:15;;;;;;;30.63;28.48;;;10.90;99.90;;;;;;5019803;28;20034;-71
2023/11/04 03:50:41;;;;;;;31.98;29.27;;;10.80;99.90;;;;;;5032336;28;20056;-71
2023/11/04 03:53:07;;;;;;;22.77;20.70;;;10.80;99.90;;;;;;5031915;28;20045;-70
2023/11/04 03:55:33;;;;;;;33.53;31.00;;;10.90;99.90;;;;;;5031130;28;20038;-71
2023/11/04 03:57:59;;;;;;;56.30;52.60;;;10.90;99.90;;;;;;5028708;28;20061;-71
2023/11/04 04:00:25;;;;;;;54.38;50.88;;;10.90;99.90;;;;;;5031195;28;20033;-71
2023/11/04 04:02:52;;;;;;;70.82;66.35;;;10.90;99.90;;;;;;5026698;28;20030;-71
2023/11/04 04:05:18;;;;;;;36.38;33.25;;;10.90;99.90;;;;;;5014212;28;20041;-71
2023/11/04 04:07:44;;;;;;;60.50;57.00;;;10.90;99.90;;;;;;5029876;28;20386;-71
2023/11/04 04:10:10;;;;;;;45.72;42.97;;;10.90;99.90;;;;;;5032623;28;20042;-72
2023/11/04 04:12:37;;;;;;;32.58;30.42;;;10.80;99.90;;;;;;5030960;28;20044;-71
2023/11/04 04:15:04;;;;;;;25.42;23.48;;;10.80;99.90;;;;;;5031832;28;20045;-71
2023/11/04 04:17:30;;;;;;;19.67;17.73;;;10.80;99.90;;;;;;5024439;28;20057;-71
2023/11/04 04:19:56;;;;;;;19.58;18.05;;;10.80;99.90;;;;;;5031867;28;20052;-71
2023/11/04 04:22:23;;;;;;;19.23;17.73;;;10.80;99.90;;;;;;5031533;28;20037;-71
2023/11/04 04:24:50;;;;;;;18.63;17.30;;;10.90;99.90;;;;;;5032501;28;20017;-71
2023/11/04 04:27:16;;;;;;;21.08;19.20;;;10.90;99.90;;;;;;5023703;28;20046;-71
2023/11/04 04:29:42;;;;;;;26.67;24.88;;;10.90;99.90;;;;;;5012712;28;20041;-72
2023/11/04 04:32:08;;;;;;;21.48;19.70;;;10.90;99.90;;;;;;5012733;28;20430;-71
2023/11/04 04:34:34;;;;;;;19.90;18.52;;;10.90;99.90;;;;;;5030467;28;20029;-72
2023/11/04 04:37:00;;;;;;;22.35;20.85;;;11.00;99.90;;;;;;5016391;28;20042;-71
2023/11/04 04:39:26;;;;;;;20.45;19.15;;;11.00;99.90;;;;;;5027612;28;20037;-71
2023/11/04 04:41:52;;;;;;;24.15;22.33;;;11.00;99.90;;;;;;5030726;28;20045;-71
2023/11/04 04:44:19;;;;;;;20.65;19.33;;;11.00;99.90;;;;;;5031240;28;20029;-71
2023/11/04 04:46:45;;;;;;;26.23;24.73;;;11.00;99.90;;;;;;5024356;28;20046;-72
2023/11/04 04:49:11;;;;;;;21.52;20.00;;;11.00;99.90;;;;;;5026831;28;20029;-72
2023/11/04 04:51:37;;;;;;;28.15;26.65;;;11.10;99.90;;;;;;5030075;28;20053;-72
2023/11/04 04:54:03;;;;;;;21.88;20.50;;;11.10;99.90;;;;;;5029879;28;20037;-71
2023/11/04 04:56:29;;;;;;;27.20;25.80;;;11.10;99.90;;;;;;5031082;28;20034;-71
2023/11/04 04:58:55;;;;;;;21.58;20.27;;;11.20;99.90;;;;;;5030585;28;20037;-72
2023/11/04 05:01:22;;;;;;;31.55;29.90;;;11.10;99.90;;;;;;5029941;28;20045;-72
2023/11/04 05:03:49;;;;;;;25.67;24.38;;;11.20;99.90;;;;;;5024065;28;20037;-71
2023/11/04 05:06:15;;;;;;;25.42;24.00;;;11.20;99.90;;;;;;5026780;28;20159;-71
2023/11/04 05:08:41;;;;;;;27.65;26.30;;;11.20;99.90;;;;;;5029357;28;20049;-71
2023/11/04 05:11:08;;;;;;;16.80;15.80;;;11.20;99.90;;;;;;5029601;28;20041;-71
2023/11/04 05:13:36;;;;;;;27.45;26.13;;;11.20;99.90;;;;;;5031996;28;20034;-71
2023/11/04 05:16:02;;;;;;;28.00;26.50;;;11.30;99.90;;;;;;5029155;28;20490;-71
2023/11/04 05:18:29;;;;;;;25.85;24.58;;;11.30;99.90;;;;;;5030160;28;20062;-71
2023/11/04 05:20:58;;;;;;;30.50;29.05;;;11.30;99.90;;;;;;5031318;28;20026;-71
2023/11/04 05:23:24;;;;;;;23.98;22.77;;;11.30;99.90;;;;;;5030294;28;20390;-71
2023/11/04 05:25:50;;;;;;;47.22;25.80;;;11.30;99.90;;;;;;5031445;28;20040;-71
2023/11/04 05:28:16;;;;;;;22.05;21.00;;;11.30;99.90;;;;;;5030693;28;20041;-72
2023/11/04 05:30:42;;;;;;;21.48;20.45;;;11.40;99.90;;;;;;5032248;28;20037;-71
2023/11/04 05:33:09;;;;;;;26.52;24.83;;;11.40;99.90;;;;;;5035097;28;20375;-72
2023/11/04 05:35:36;;;;;;;25.67;24.48;;;11.40;99.90;;;;;;5031104;28;20398;-72
2023/11/04 05:38:03;;;;;;;25.85;24.52;;;11.40;99.90;;;;;;5035123;28;20025;-72
2023/11/04 05:40:29;;;;;;;28.80;27.45;;;11.40;99.90;;;;;;5033019;28;20057;-71
2023/11/04 05:42:55;;;;;;;31.83;30.33;;;11.40;99.90;;;;;;5034279;28;20467;-71
2023/11/04 05:45:21;;;;;;;33.17;31.40;;;11.50;99.90;;;;;;5034562;28;20033;-71
2023/11/04 05:47:47;;;;;;;36.95;35.20;;;11.50;99.90;;;;;;5035249;28;20040;-72
2023/11/04 05:50:13;;;;;;;26.77;25.42;;;11.50;99.90;;;;;;5033193;28;20037;-71
2023/11/04 05:52:42;;;;;;;25.45;24.25;;;11.50;99.90;;;;;;5034793;28;20041;-71
2023/11/04 05:55:11;;;;;;;29.77;28.38;;;11.50;99.90;;;;;;5034980;28;20056;-72
2023/11/04 05:57:40;;;;;;;29.20;27.80;;;11.60;99.90;;;;;;5035130;28;20425;-72
2023/11/04 06:00:11;;;;;;;31.80;30.33;;;11.60;99.90;;;;;;5033918;28;20033;-71
2023/11/04 06:02:40;;;;;;;44.95;42.72;;;11.60;99.90;;;;;;5034538;28;20060;-72
2023/11/04 06:05:09;;;;;;;52.65;50.10;;;11.60;99.90;;;;;;5033630;28;20390;-72
2023/11/04 06:07:36;;;;;;;28.77;27.27;;;11.70;99.90;;;;;;5033324;28;20422;-72
2023/11/04 06:10:08;;;;;;;30.75;29.30;;;11.70;99.90;;;;;;5016625;28;20056;-72
2023/11/04 06:12:37;;;;;;;32.85;31.27;;;11.70;99.90;;;;;;5023347;28;20509;-72
2023/11/04 06:15:03;;;;;;;35.72;33.78;;;11.70;99.90;;;;;;5032511;28;20355;-71
2023/11/04 06:17:29;;;;;;;31.83;30.27;;;11.80;99.90;;;;;;5032115;28;20056;-72
2023/11/04 06:19:57;;;;;;;38.60;36.78;;;11.80;99.90;;;;;;5034406;28;20029;-72
2023/11/04 06:22:23;;;;;;;31.40;29.85;;;11.80;99.90;;;;;;5032728;28;20033;-72
2023/11/04 06:24:52;;;;;;;32.83;31.30;;;11.90;99.90;;;;;;5032715;28;20034;-72
2023/11/04 06:27:19;;;;;;;33.75;32.10;;;11.90;99.90;;;;;;5032654;28;20045;-72
2023/11/04 06:29:45;;;;;;;33.58;31.77;;;11.90;99.90;;;;;;5033304;28;20045;-72
2023/11/04 06:32:12;;;;;;;34.05;32.33;;;12.00;99.90;;;;;;5032246;28;20430;-72
2023/11/04 06:34:39;;;;;;;36.35;34.45;;;12.00;99.90;;;;;;5016775;28;20379;-72
2023/11/04 06:37:06;;;;;;;35.63;33.75;;;12.10;99.90;;;;;;5033778;28;20042;-72
2023/11/04 06:39:32;;;;;;;37.42;35.60;;;12.20;99.90;;;;;;5032054;28;20030;-72
2023/11/04 06:41:59;;;;;;;45.25;43.05;;;12.20;99.90;;;;;;5032596;28;20022;-72
2023/11/04 06:44:25;;;;;;;45.88;43.67;;;12.20;99.90;;;;;;5034348;28;20041;-72
2023/11/04 06:46:52;;;;;;;40.75;38.80;;;12.20;99.90;;;;;;5033570;28;20061;-72
2023/11/04 06:49:22;;;;;;;37.65;35.88;;;12.20;99.90;;;;;;5033911;28;20028;-72
2023/11/04 06:51:48;;;;;;;32.40;30.83;;;12.20;99.90;;;;;;5033514;28;20025;-71
2023/11/04 06:54:14;;;;;;;29.65;28.13;;;12.20;99.90;;;;;;5034236;28;20041;-72
2023/11/04 06:56:40;;;;;;;32.13;30.50;;;12.20;99.90;;;;;;5032709;28;20056;-72
2023/11/04 06:59:06;;;;;;;41.33;39.30;;;12.20;99.90;;;;;;5033719;28;20030;-72
2023/11/04 07:01:32;;;;;;;36.88;34.80;;;12.20;99.90;;;;;;5033365;28;20063;-72
2023/11/04 07:03:58;;;;;;;40.88;38.63;;;12.30;99.90;;;;;;5033891;28;20021;-72
2023/11/04 07:06:24;;;;;;;54.30;51.45;;;12.30;99.90;;;;;;5033525;28;20386;-72
2023/11/04 07:08:54;;;;;;;41.28;38.78;;;12.30;99.90;;;;;;5031963;28;20040;-72
2023/11/04 07:11:21;;;;;;;46.80;43.90;;;12.30;99.90;;;;;;5032285;28;20021;-72
2023/11/04 07:13:47;;;;;;;40.80;37.80;;;12.40;99.90;;;;;;5032700;28;20041;-72
2023/11/04 07:16:13;;;;;;;34.42;31.67;;;12.40;99.90;;;;;;5031094;28;20044;-72
2023/11/04 07:18:40;;;;;;;46.03;42.33;;;12.40;99.90;;;;;;5032577;28;20049;-72
2023/11/04 07:21:06;;;;;;;38.53;35.40;;;12.50;99.90;;;;;;5030049;28;20049;-72
2023/11/04 07:23:32;;;;;;;38.92;35.28;;;12.50;99.90;;;;;;5033974;28;20064;-72
2023/11/04 07:25:59;;;;;;;39.13;35.70;;;12.50;99.90;;;;;;5008312;28;20057;-72
2023/11/04 07:28:34;;;;;;;42.70;38.60;;;12.60;99.90;;;;;;5030518;28;20037;-72
2023/11/04 07:31:00;;;;;;;42.90;38.88;;;12.60;99.90;;;;;;5032278;28;20037;-72
2023/11/04 07:33:26;;;;;;;40.75;34.25;;;12.70;99.90;;;;;;5021885;28;20045;-70
2023/11/04 07:35:52;;;;;;;38.85;34.63;;;12.70;99.90;;;;;;5016130;28;20030;-72
2023/11/04 07:38:18;;;;;;;37.42;32.35;;;12.70;99.90;;;;;;5032869;28;20045;-72
2023/11/04 07:40:44;;;;;;;47.33;37.38;;;12.70;99.90;;;;;;5031250;28;20033;-72
2023/11/04 07:43:10;;;;;;;47.38;34.22;;;12.80;99.90;;;;;;5017341;28;20475;-72
2023/11/04 07:45:37;;;;;;;40.70;23.38;;;12.80;99.90;;;;;;4997888;28;20113;-72
2023/11/04 07:48:04;;;;;;;47.03;39.63;;;12.80;99.90;;;;;;5032569;28;20021;-71
2023/11/04 07:50:31;;;;;;;41.85;25.02;;;12.80;99.90;;;;;;5031071;28;20032;-71
2023/11/04 07:52:57;;;;;;;40.85;24.23;;;12.80;99.90;;;;;;5032791;28;20037;-72
2023/11/04 07:55:23;;;;;;;44.50;27.45;;;12.90;99.90;;;;;;5032329;28;20494;-72
2023/11/04 07:57:49;;;;;;;42.75;35.88;;;12.90;99.90;;;;;;5031561;28;20041;-68
2023/11/04 08:00:15;;;;;;;43.85;31.27;;;13.00;99.90;;;;;;5031715;28;20021;-72
2023/11/04 08:02:42;;;;;;;49.55;33.00;;;13.00;99.90;;;;;;5028835;28;20533;-71
2023/11/04 08:05:09;;;;;;;51.78;35.08;;;13.00;99.90;;;;;;5027931;28;20037;-71
2023/11/04 08:07:39;;;;;;;53.42;47.88;;;13.10;99.90;;;;;;5046737;28;20034;-72
2023/11/04 08:10:06;;;;;;;48.88;38.30;;;13.10;99.90;;;;;;5024239;28;20025;-72
2023/11/04 08:12:33;;;;;;;53.15;35.25;;;13.20;99.90;;;;;;5030811;28;20536;-72
2023/11/04 08:15:00;;;;;;;46.85;40.13;;;13.20;99.90;;;;;;5032427;28;20029;-72
2023/11/04 08:17:26;;;;;;;55.35;49.85;;;13.20;99.90;;;;;;5029421;28;20045;-72
2023/11/04 08:19:52;;;;;;;54.03;41.75;;;13.20;99.90;;;;;;5026206;28;20514;-72
2023/11/04 08:22:20;;;;;;;55.88;43.80;;;13.20;99.90;;;;;;5030006;28;20091;-72
2023/11/04 08:24:46;;;;;;;59.53;50.40;;;13.20;99.90;;;;;;5020037;28;20037;-72
2023/11/04 08:27:12;;;;;;;62.60;52.42;;;13.30;99.90;;;;;;5031712;28;20041;-72
2023/11/04 08:29:41;;;;;;;56.95;49.78;;;13.30;99.90;;;;;;5030200;28;20044;-73
2023/11/04 08:32:07;;;;;;;69.15;63.05;;;13.40;99.90;;;;;;5030916;28;20046;-72
2023/11/04 08:34:35;;;;;;;55.90;50.05;;;13.40;99.90;;;;;;5030760;28;20394;-71
2023/11/04 08:37:02;;;;;;;55.70;49.40;;;13.40;99.90;;;;;;5026036;28;20041;-72
2023/11/04 08:39:28;;;;;;;47.60;41.30;;;13.50;99.90;;;;;;5031754;28;20401;-73
2023/11/04 08:41:54;;;;;;;47.60;41.42;;;13.50;99.90;;;;;;5031529;28;20042;-72
2023/11/04 08:44:22;;;;;;;62.55;55.20;;;13.60;99.90;;;;;;5016971;28;20033;-71
2023/11/04 08:46:48;;;;;;;83.20;75.40;;;13.60;99.90;;;;;;5024558;28;20048;-72
2023/11/04 08:49:16;;;;;;;78.63;72.03;;;13.60;99.90;;;;;;5031722;28;20498;-74
2023/11/04 08:51:43;;;;;;;87.85;74.57;;;13.70;99.90;;;;;;5025062;28;20030;-73
2023/11/04 08:54:09;;;;;;;71.57;63.85;;;13.70;99.90;;;;;;5015310;28;20053;-72
2023/11/04 08:56:36;;;;;;;75.85;68.82;;;13.70;99.90;;;;;;5025703;28;20029;-72
2023/11/04 08:59:02;;;;;;;68.32;61.38;;;13.80;99.90;;;;;;5029729;28;20042;-72
2023/11/04 09:01:29;;;;;;;71.18;64.25;;;13.80;99.90;;;;;;5020013;28;20042;-72
2023/11/04 09:03:55;;;;;;;75.95;68.75;;;13.90;99.90;;;;;;5016621;28;20410;-72
2023/11/04 09:06:22;;;;;;;88.28;81.45;;;13.90;99.90;;;;;;5031610;28;20048;-72
2023/11/04 09:08:49;;;;;;;100.60;93.00;;;14.00;99.90;;;;;;5034655;28;20025;-73
2023/11/04 09:11:16;;;;;;;81.63;74.28;;;13.90;99.90;;;;;;5026247;28;20021;-72
2023/11/04 09:13:43;;;;;;;106.50;98.07;;;14.00;99.90;;;;;;5016289;28;20049;-72
2023/11/04 09:16:09;;;;;;;89.50;82.30;;;14.10;99.90;;;;;;5022501;28;20033;-72
2023/11/04 09:18:38;;;;;;;101.28;92.78;;;14.10;99.90;;;;;;5035632;28;20040;-72
2023/11/04 09:21:05;;;;;;;124.32;115.03;;;14.20;99.90;;;;;;5029505;28;20053;-72
2023/11/04 09:23:31;;;;;;;103.53;95.20;;;14.10;99.90;;;;;;5033838;28;20041;-72
2023/11/04 09:25:57;;;;;;;124.97;115.72;;;14.10;99.90;;;;;;5034792;28;20033;-72
2023/11/04 09:28:23;;;;;;;99.72;92.38;;;14.10;99.90;;;;;;5034370;28;20025;-72
2023/11/04 09:30:51;;;;;;;76.65;69.60;;;14.00;99.90;;;;;;5034096;28;20048;-73
2023/11/04 09:33:17;;;;;;;82.07;74.75;;;14.00;99.90;;;;;;5031679;28;20037;-71
2023/11/04 09:35:43;;;;;;;83.47;74.57;;;14.00;99.90;;;;;;5033138;28;20041;-72
2023/11/04 09:38:10;;;;;;;71.57;64.07;;;13.90;99.90;;;;;;5033671;28;20033;-72
2023/11/04 09:40:36;;;;;;;85.38;77.22;;;13.90;99.90;;;;;;5033239;28;20025;-72
2023/11/04 09:43:02;;;;;;;71.55;63.85;;;13.80;99.90;;;;;;5032347;28;20033;-72
2023/11/04 09:45:29;;;;;;;69.07;59.55;;;13.60;99.90;;;;;;5016140;28;20037;-72
2023/11/04 09:47:55;;;;;;;95.43;87.00;;;13.50;99.90;;;;;;5033153;28;20025;-71
2023/11/04 09:50:22;;;;;;;86.88;78.85;;;13.50;99.90;;;;;;5034394;28;20029;-70
2023/11/04 09:52:55;;;;;;;79.35;69.07;;;13.40;99.90;;;;;;5034618;28;20033;-70
2023/11/04 09:55:23;;;;;;;93.47;70.18;;;13.30;99.90;;;;;;5024716;28;20036;-70
2023/11/04 09:57:49;;;;;;;79.25;69.38;;;13.20;99.90;;;;;;5028605;28;20514;-70
2023/11/04 10:00:17;;;;;;;87.38;72.90;;;13.10;99.90;;;;;;5029318;28;20033;-70
2023/11/04 10:02:45;;;;;;;62.20;56.80;;;13.10;99.90;;;;;;5033400;28;20033;-70
2023/11/04 10:05:11;;;;;;;74.40;60.20;;;13.10;99.90;;;;;;5034070;28;20036;-70
2023/11/04 10:07:38;;;;;;;107.43;97.32;;;13.20;99.90;;;;;;5014541;28;20049;-71
2023/11/04 10:10:05;;;;;;;84.13;73.25;;;13.30;99.90;;;;;;5022301;28;20017;-70
2023/11/04 10:12:31;;;;;;;79.78;73.68;;;13.40;99.90;;;;;;5023278;28;20078;-70
2023/11/04 10:14:57;;;;;;;56.83;52.47;;;13.50;99.90;;;;;;5024185;28;20053;-70
2023/11/04 10:17:23;;;;;;;77.15;71.20;;;13.50;99.90;;;;;;5025752;28;20042;-70
2023/11/04 10:19:50;;;;;;;57.58;53.53;;;13.60;99.90;;;;;;5023679;28;20501;-72
2023/11/04 10:22:16;;;;;;;51.92;47.70;;;13.60;99.90;;;;;;5032531;28;20078;-72
2023/11/04 10:24:42;;;;;;;67.55;62.25;;;13.60;99.90;;;;;;5032354;28;20466;-72
2023/11/04 10:27:08;;;;;;;69.13;64.03;;;13.60;99.90;;;;;;5032355;28;20033;-71
2023/11/04 10:29:35;;;;;;;70.50;65.07;;;13.60;99.90;;;;;;5032461;28;20041;-72
2023/11/04 10:32:04;;;;;;;80.72;74.85;;;13.60;99.90;;;;;;5024753;28;20159;-72
2023/11/04 10:34:32;;;;;;;76.25;70.65;;;13.60;99.90;;;;;;5034123;28;20057;-72
2023/11/04 10:36:58;;;;;;;96.90;89.60;;;13.60;99.90;;;;;;5013042;28;20041;-72
2023/11/04 10:39:24;;;;;;;78.68;72.72;;;13.60;99.90;;;;;;5032941;28;20489;-72
2023/11/04 10:42:04;;;;;;;71.57;64.97;;;13.50;99.90;;;;;;5015099;28;20048;-71
2023/11/04 10:44:36;;;;;;;90.40;83.67;;;13.50;99.90;;;;;;5032755;28;20053;-72
2023/11/04 10:47:26;;;;;;;78.18;72.32;;;13.50;99.90;;;;;;5031458;28;20046;-72
2023/11/04 10:50:07;;;;;;;77.93;71.90;;;13.60;99.90;;;;;;5033749;28;20033;-71
2023/11/04 10:52:37;;;;;;;78.72;72.18;;;13.70;99.90;;;;;;5032512;28;20030;-72
2023/11/04 10:55:03;;;;;;;78.50;71.70;;;13.70;99.90;;;;;;5015967;28;20029;-72
2023/11/04 10:57:48;;;;;;;78.70;71.82;;;13.70;99.90;;;;;;5033147;28;20038;-72
2023/11/04 11:00:15;;;;;;;58.58;53.20;;;13.80;99.90;;;;;;5031052;28;20029;-71
2023/11/04 11:02:44;;;;;;;52.53;47.45;;;13.80;99.90;;;;;;5030752;28;20378;-72
2023/11/04 11:05:11;;;;;;;55.38;49.50;;;13.80;99.90;;;;;;5033318;28;20025;-71
2023/11/04 11:07:44;;;;;;;68.45;56.58;;;13.90;99.90;;;;;;5032133;28;20045;-70
2023/11/04 11:10:12;;;;;;;77.10;61.53;;;13.90;99.90;;;;;;5031948;28;20044;-70
2023/11/04 11:13:04;;;;;;;70.57;63.58;;;14.00;99.90;;;;;;5039044;28;20038;-70
2023/11/04 11:15:31;;;;;;;68.25;61.13;;;14.00;99.90;;;;;;5028558;28;20714;-70
2023/11/04 11:18:01;;;;;;;71.63;64.82;;;14.00;99.90;;;;;;5031934;28;20052;-69
2023/11/04 11:20:31;;;;;;;66.50;59.25;;;14.10;99.90;;;;;;5033102;28;20025;-70
2023/11/04 11:22:57;;;;;;;76.03;69.18;;;14.10;99.90;;;;;;5032623;28;20037;-70
2023/11/04 11:25:36;;;;;;;69.25;62.10;;;14.10;99.90;;;;;;5029697;28;20040;-70
2023/11/04 11:28:19;;;;;;;78.45;70.25;;;14.20;99.90;;;;;;5025412;28;20026;-69
2023/11/04 11:30:46;;;;;;;97.53;89.28;;;14.20;99.90;;;;;;5022767;28;20025;-70
2023/11/04 11:33:14;;;;;;;87.63;80.10;;;14.30;99.90;;;;;;5032676;28;20058;-70
2023/11/04 11:35:58;;;;;;;105.10;96.28;;;14.50;99.90;;;;;;5032406;28;20045;-70
2023/11/04 11:38:25;;;;;;;140.98;129.95;;;14.60;99.90;;;;;;5013240;28;20025;-70
2023/11/04 11:40:51;;;;;;;141.65;131.52;;;14.70;99.90;;;;;;5018009;28;20049;-70
2023/11/04 11:43:20;;;;;;;143.02;131.68;;;14.70;99.90;;;;;;5026442;28;20056;-70
2023/11/04 11:45:47;;;;;;;204.38;189.55;;;14.70;99.90;;;;;;5016787;28;20026;-69
2023/11/04 11:48:15;;;;;;;163.02;150.48;;;14.70;99.90;;;;;;5031493;28;20037;-70
2023/11/04 11:50:42;;;;;;;92.78;84.70;;;14.60;99.90;;;;;;5031688;28;20042;-70
2023/11/04 11:53:08;;;;;;;84.72;76.90;;;14.60;99.90;;;;;;5032122;28;20554;-69
2023/11/04 11:55:35;;;;;;;94.30;85.65;;;14.40;99.90;;;;;;5031788;28;20029;-69
2023/11/04 11:58:01;;;;;;;95.22;86.70;;;14.30;99.90;;;;;;5032344;28;20029;-70
2023/11/04 12:00:27;;;;;;;80.35;72.72;;;14.10;99.90;;;;;;5030276;28;20041;-68
2023/11/04 12:02:54;;;;;;;65.53;59.55;;;13.90;99.90;;;;;;5029364;28;20459;-70
2023/11/04 12:05:21;;;;;;;66.85;61.15;;;13.80;99.90;;;;;;5014987;28;20049;-70
2023/11/04 12:07:48;;;;;;;67.00;61.50;;;13.80;99.90;;;;;;5026939;28;20032;-69
2023/11/04 12:10:14;;;;;;;69.32;63.95;;;13.80;99.90;;;;;;5039151;28;20029;-70
2023/11/04 12:12:41;;;;;;;71.63;66.28;;;13.90;99.90;;;;;;5030803;28;20378;-70
2023/11/04 12:15:16;;;;;;;75.18;69.55;;;14.00;99.90;;;;;;5011707;28;20036;-68
2023/11/04 12:17:42;;;;;;;70.72;65.78;;;14.10;99.90;;;;;;5012741;28;20060;-70
2023/11/04 12:20:15;;;;;;;68.97;64.35;;;14.00;99.90;;;;;;5026845;28;20042;-69
2023/11/04 12:22:41;;;;;;;76.50;71.60;;;13.90;99.90;;;;;;5012487;28;20394;-70
2023/11/04 12:25:08;;;;;;;91.85;86.40;;;13.90;99.90;;;;;;5010481;28;20053;-69